Wetterdaten: aktuell Sonntag, 22.07.2018 03:10
Datum Zeit Temp. A. Feuchte A. Luftdruck Regen Wind Richtung Richtung Taupunkt Windchill Windben Empfang
22.07.2018 03:10 17,3 C 85 % 1011,5 hPa 0,0 l/m 4,5 km/h (1 Bft) NW 315 14,8 C 17,3 C 10,7 km/h (2 Bft) 100 %
22.07.2018 03:00 17,4 C 85 % 1011,4 hPa 0,0 l/m 1,9 km/h (1 Bft) NW 319 14,8 C 17,4 C 6,4 km/h (2 Bft) 98 %
22.07.2018 02:50 17,6 C 84 % 1011,4 hPa 0,0 l/m 4,2 km/h (1 Bft) NW 319 14,9 C 17,6 C 8,5 km/h (2 Bft) 98 %
22.07.2018 02:40 17,7 C 84 % 1011,5 hPa 0,0 l/m 4,0 km/h (1 Bft) NW 314 15,0 C 17,7 C 8,5 km/h (2 Bft) 99 %
22.07.2018 02:30 17,8 C 84 % 1011,4 hPa 0,0 l/m 3,0 km/h (1 Bft) NW 324 15,1 C 17,8 C 8,5 km/h (2 Bft) 97 %
22.07.2018 02:21 17,9 C 84 % 1011,4 hPa 0,0 l/m 3,8 km/h (1 Bft) W-NW 302 15,2 C 17,9 C 10,7 km/h (2 Bft) 99 %
22.07.2018 02:10 18,1 C 84 % 1011,3 hPa 0,0 l/m 5,1 km/h (1 Bft) W-NW 300 15,4 C 18,1 C 10,7 km/h (2 Bft) 99 %
22.07.2018 02:00 18,3 C 83 % 1011,2 hPa 0,0 l/m 1,8 km/h (1 Bft) W-NW 290 15,4 C 18,3 C 4,3 km/h (1 Bft) 100 %
22.07.2018 01:50 18,5 C 83 % 1011,2 hPa 0,0 l/m 1,4 km/h (1 Bft) W-NW 290 15,6 C 18,5 C 6,4 km/h (2 Bft) 99 %
22.07.2018 01:40 18,7 C 82 % 1011,1 hPa 0,0 l/m 0,6 km/h (0 Bft) W-NW 290 15,6 C 18,7 C 6,4 km/h (2 Bft) 99 %
22.07.2018 01:30 18,8 C 82 % 1011,0 hPa 0,0 l/m 4,0 km/h (1 Bft) W-NW 290 15,7 C 18,8 C 10,7 km/h (2 Bft) 98 %
22.07.2018 01:20 19,0 C 81 % 1010,9 hPa 0,0 l/m 5,3 km/h (1 Bft) NW 304 15,7 C 19,0 C 10,7 km/h (2 Bft) 99 %
22.07.2018 01:10 19,2 C 81 % 1011,0 hPa 0,0 l/m 4,3 km/h (1 Bft) NW 322 15,9 C 19,2 C 10,7 km/h (2 Bft) 100 %
22.07.2018 01:00 19,4 C 80 % 1010,9 hPa 0,0 l/m 4,5 km/h (1 Bft) W-NW 294 15,9 C 19,4 C 12,8 km/h (3 Bft) 99 %
22.07.2018 00:50 19,6 C 79 % 1010,8 hPa 0,0 l/m 3,4 km/h (1 Bft) W-NW 299 15,9 C 19,6 C 6,4 km/h (2 Bft) 100 %
22.07.2018 00:40 19,8 C 78 % 1010,8 hPa 0,0 l/m 0,2 km/h (0 Bft) S-SW 192 15,8 C 19,8 C 4,3 km/h (1 Bft) 99 %
22.07.2018 00:30 20,0 C 76 % 1010,8 hPa 0,0 l/m 0,7 km/h (0 Bft) S-SW 192 15,6 C 20,0 C 4,3 km/h (1 Bft) 99 %
22.07.2018 00:24 20,2 C 76 % 1010,8 hPa 0,0 l/m 2,5 km/h (1 Bft) S-SW 192 15,8 C 20,2 C 8,5 km/h (2 Bft) 99 %
22.07.2018 00:10 20,4 C 74 % 1010,7 hPa 0,0 l/m 0,2 km/h (0 Bft) S-SW 192 15,6 C 20,4 C 4,3 km/h (1 Bft) 100 %
22.07.2018 00:00 20,7 C 73 % 1010,7 hPa 0,0 l/m 0,0 km/h (0 Bft) S-SW 192 15,7 C 20,7 C 2,1 km/h (1 Bft) 100 %
21.07.2018 23:50 20,9 C 73 % 1010,8 hPa 0,0 l/m 1,8 km/h (1 Bft) S-SW 192 15,9 C 20,9 C 4,3 km/h (1 Bft) 99 %
21.07.2018 23:40 21,1 C 72 % 1010,8 hPa 0,0 l/m 2,2 km/h (1 Bft) S-SW 192 15,8 C 21,1 C 6,4 km/h (2 Bft) 99 %
21.07.2018 23:30 21,4 C 71 % 1010,9 hPa 0,0 l/m 2,4 km/h (1 Bft) S-SW 192 15,9 C 21,4 C 6,4 km/h (2 Bft) 100 %
21.07.2018 23:20 21,7 C 70 % 1010,9 hPa 0,0 l/m 3,3 km/h (1 Bft) S 191 16,0 C 21,7 C 8,5 km/h (2 Bft) 99 %
21.07.2018 23:10 21,9 C 69 % 1010,9 hPa 0,0 l/m 3,6 km/h (1 Bft) W-SW 257 15,9 C 21,9 C 10,7 km/h (2 Bft) 100 %
21.07.2018 23:00 22,2 C 68 % 1010,8 hPa 0,0 l/m 5,4 km/h (1 Bft) S-SW 202 16,0 C 22,2 C 14,9 km/h (3 Bft) 100 %
21.07.2018 22:50 22,4 C 66 % 1010,7 hPa 0,0 l/m 1,3 km/h (1 Bft) S 189 15,7 C 22,4 C 6,4 km/h (2 Bft) 100 %
21.07.2018 22:40 22,7 C 65 % 1010,7 hPa 0,0 l/m 1,5 km/h (1 Bft) S 189 15,8 C 22,7 C 6,4 km/h (2 Bft) 100 %
21.07.2018 22:30 23,0 C 64 % 1010,8 hPa 0,0 l/m 2,4 km/h (1 Bft) S 189 15,8 C 23,0 C 6,4 km/h (2 Bft) 99 %
21.07.2018 22:20 23,3 C 63 % 1010,6 hPa 0,0 l/m 0,6 km/h (0 Bft) S 189 15,9 C 23,3 C 6,4 km/h (2 Bft) 100 %
21.07.2018 22:10 23,6 C 62 % 1010,6 hPa 0,0 l/m 0,0 km/h (0 Bft) S 189 15,9 C 23,6 C 0,0 km/h (0 Bft) 99 %
21.07.2018 22:00 23,8 C 62 % 1010,5 hPa 0,0 l/m 0,0 km/h (0 Bft) S 189 16,1 C 23,8 C 0,0 km/h (0 Bft) 99 %
21.07.2018 21:50 24,1 C 62 % 1010,4 hPa 0,0 l/m 0,0 km/h (0 Bft) S 189 16,4 C 24,1 C 0,0 km/h (0 Bft) 99 %
21.07.2018 21:40 24,2 C 61 % 1010,4 hPa 0,0 l/m 1,2 km/h (1 Bft) S 189 16,2 C 24,2 C 6,4 km/h (2 Bft) 100 %
21.07.2018 21:30 24,3 C 61 % 1010,3 hPa 0,0 l/m 1,5 km/h (1 Bft) S 189 16,3 C 24,3 C 6,4 km/h (2 Bft) 99 %
21.07.2018 21:20 24,6 C 62 % 1010,2 hPa 0,0 l/m 2,4 km/h (1 Bft) S 189 16,8 C 24,6 C 6,4 km/h (2 Bft) 98 %
21.07.2018 21:10 24,7 C 61 % 1010,2 hPa 0,0 l/m 3,5 km/h (1 Bft) S 189 16,7 C 24,7 C 8,5 km/h (2 Bft) 99 %
21.07.2018 21:00 25,0 C 62 % 1010,2 hPa 0,0 l/m 1,4 km/h (1 Bft) S 189 17,2 C 25,0 C 8,5 km/h (2 Bft) 99 %
21.07.2018 20:50 25,3 C 61 % 1010,0 hPa 0,0 l/m 0,8 km/h (0 Bft) S 191 17,2 C 25,3 C 6,4 km/h (2 Bft) 100 %
21.07.2018 20:40 25,6 C 59 % 1010,0 hPa 0,0 l/m 3,4 km/h (1 Bft) S 191 17,0 C 25,6 C 6,4 km/h (2 Bft) 98 %
21.07.2018 20:30 25,9 C 58 % 1010,0 hPa 0,0 l/m 5,3 km/h (1 Bft) S 191 17,0 C 25,9 C 10,7 km/h (2 Bft) 98 %
21.07.2018 20:20 26,3 C 55 % 1010,0 hPa 0,0 l/m 6,3 km/h (2 Bft) SW 227 16,5 C 26,3 C 14,9 km/h (3 Bft) 98 %
21.07.2018 20:10 27,2 C 54 % 1009,9 hPa 0,0 l/m 5,6 km/h (1 Bft) S-SW 210 17,1 C 27,2 C 21,3 km/h (4 Bft) 98 %
21.07.2018 20:00 27,8 C 46 % 1009,9 hPa 0,0 l/m 4,0 km/h (1 Bft) S 184 15,1 C 27,8 C 12,8 km/h (3 Bft) 99 %
21.07.2018 19:50 28,5 C 43 % 1009,8 hPa 0,0 l/m 1,3 km/h (1 Bft) O-SO 117 14,7 C 28,5 C 8,5 km/h (2 Bft) 100 %
21.07.2018 19:40 28,9 C 39 % 1009,8 hPa 0,0 l/m 1,2 km/h (1 Bft) O-SO 115 13,5 C 28,9 C 4,3 km/h (1 Bft) 99 %
21.07.2018 19:30 29,3 C 38 % 1009,7 hPa 0,0 l/m 1,4 km/h (1 Bft) O-SO 115 13,5 C 29,3 C 4,3 km/h (1 Bft) 99 %
21.07.2018 19:20 29,1 C 39 % 1009,7 hPa 0,0 l/m 2,6 km/h (1 Bft) O-SO 115 13,7 C 29,1 C 8,5 km/h (2 Bft) 98 %
21.07.2018 19:10 28,0 C 43 % 1009,7 hPa 0,0 l/m 1,9 km/h (1 Bft) O-SO 115 14,2 C 28,0 C 8,5 km/h (2 Bft) 100 %
21.07.2018 19:00 26,9 C 47 % 1009,9 hPa 0,0 l/m 0,7 km/h (0 Bft) SW 222 14,6 C 26,9 C 4,3 km/h (1 Bft) 99 %
21.07.2018 18:50 26,3 C 54 % 1010,0 hPa 0,0 l/m 0,6 km/h (0 Bft) SW 222 16,2 C 26,3 C 4,3 km/h (1 Bft) 99 %
21.07.2018 18:40 26,3 C 52 % 1010,1 hPa 0,0 l/m 4,7 km/h (1 Bft) SW 222 15,6 C 26,3 C 8,5 km/h (2 Bft) 99 %
21.07.2018 18:30 26,6 C 49 % 1010,2 hPa 0,0 l/m 7,4 km/h (2 Bft) SW 215 15,0 C 26,4 C 17,1 km/h (3 Bft) 99 %
21.07.2018 18:20 26,7 C 47 % 1010,2 hPa 0,0 l/m 2,1 km/h (1 Bft) SW 217 14,4 C 26,7 C 8,5 km/h (2 Bft) 100 %
21.07.2018 18:10 26,8 C 47 % 1010,1 hPa 0,0 l/m 3,8 km/h (1 Bft) N-NO 15 14,5 C 26,8 C 12,8 km/h (3 Bft) 100 %
21.07.2018 18:00 27,2 C 44 % 1010,0 hPa 0,0 l/m 3,7 km/h (1 Bft) N-NO 30 13,9 C 27,2 C 10,7 km/h (2 Bft) 98 %
21.07.2018 17:50 27,2 C 43 % 1010,0 hPa 0,0 l/m 4,9 km/h (1 Bft) N-NO 22 13,5 C 27,2 C 14,9 km/h (3 Bft) 99 %
21.07.2018 17:40 27,2 C 43 % 1010,1 hPa 0,0 l/m 5,4 km/h (1 Bft) N-NW 343 13,5 C 27,2 C 17,1 km/h (3 Bft) 99 %
21.07.2018 17:30 27,7 C 44 % 1010,1 hPa 0,0 l/m 7,1 km/h (2 Bft) NW 317 14,3 C 27,6 C 21,3 km/h (4 Bft) 100 %
21.07.2018 17:20 28,7 C 41 % 1010,0 hPa 0,0 l/m 5,6 km/h (1 Bft) N-NW 345 14,1 C 28,7 C 19,2 km/h (3 Bft) 99 %
21.07.2018 17:10 29,4 C 38 % 1010,0 hPa 0,0 l/m 6,0 km/h (2 Bft) W-NW 283 13,6 C 29,4 C 17,1 km/h (3 Bft) 99 %
21.07.2018 17:00 30,3 C 36 % 1009,9 hPa 0,0 l/m 1,5 km/h (1 Bft) N 355 13,5 C 30,3 C 8,5 km/h (2 Bft) 98 %
21.07.2018 16:50 30,6 C 34 % 1009,9 hPa 0,0 l/m 1,9 km/h (1 Bft) N-NW 348 12,9 C 30,6 C 6,4 km/h (2 Bft) 99 %
21.07.2018 16:40 31,1 C 33 % 1009,9 hPa 0,0 l/m 3,0 km/h (1 Bft) N 10 12,9 C 31,1 C 10,7 km/h (2 Bft) 100 %
21.07.2018 16:30 31,2 C 33 % 1010,0 hPa 0,0 l/m 3,4 km/h (1 Bft) N-NO 32 13,0 C 31,2 C 12,8 km/h (3 Bft) 98 %
21.07.2018 16:20 30,7 C 36 % 1010,0 hPa 0,0 l/m 1,3 km/h (1 Bft) S-SW 194 13,9 C 30,7 C 4,3 km/h (1 Bft) 98 %
21.07.2018 16:10 30,6 C 34 % 1010,0 hPa 0,0 l/m 3,2 km/h (1 Bft) S 184 12,9 C 30,6 C 12,8 km/h (3 Bft) 98 %
21.07.2018 16:00 29,7 C 36 % 1010,0 hPa 0,0 l/m 5,3 km/h (1 Bft) O-SO 117 13,0 C 29,7 C 14,9 km/h (3 Bft) 100 %
21.07.2018 15:50 29,4 C 36 % 1010,1 hPa 0,0 l/m 3,9 km/h (1 Bft) SO 129 12,7 C 29,4 C 12,8 km/h (3 Bft) 99 %
21.07.2018 15:40 30,7 C 34 % 1010,1 hPa 0,0 l/m 3,6 km/h (1 Bft) S 170 13,0 C 30,7 C 17,1 km/h (3 Bft) 100 %
21.07.2018 15:30 31,1 C 34 % 1010,1 hPa 0,0 l/m 2,8 km/h (1 Bft) NO 36 13,4 C 31,1 C 10,7 km/h (2 Bft) 99 %
21.07.2018 15:20 31,1 C 33 % 1010,2 hPa 0,0 l/m 3,6 km/h (1 Bft) W-NW 292 12,9 C 31,1 C 12,8 km/h (3 Bft) 100 %
21.07.2018 15:10 30,7 C 35 % 1010,2 hPa 0,0 l/m 3,2 km/h (1 Bft) NO 40 13,5 C 30,7 C 14,9 km/h (3 Bft) 97 %
21.07.2018 15:00 31,3 C 33 % 1010,1 hPa 0,0 l/m 5,6 km/h (1 Bft) O-SO 122 13,1 C 31,3 C 19,2 km/h (3 Bft) 100 %
21.07.2018 14:50 31,2 C 34 % 1010,1 hPa 0,0 l/m 2,7 km/h (1 Bft) S-SO 153 13,4 C 31,2 C 8,5 km/h (2 Bft) 100 %
21.07.2018 14:40 31,3 C 34 % 1010,1 hPa 0,0 l/m 3,4 km/h (1 Bft) S 182 13,5 C 31,3 C 14,9 km/h (3 Bft) 99 %
21.07.2018 14:30 31,6 C 34 % 1010,2 hPa 0,0 l/m 3,9 km/h (1 Bft) SW 216 13,8 C 31,6 C 10,7 km/h (2 Bft) 98 %
21.07.2018 14:20 31,3 C 35 % 1010,3 hPa 0,0 l/m 2,6 km/h (1 Bft) W-SW 255 14,0 C 31,3 C 8,5 km/h (2 Bft) 98 %
21.07.2018 14:10 30,4 C 36 % 1010,3 hPa 0,0 l/m 4,9 km/h (1 Bft) O 85 13,6 C 30,4 C 12,8 km/h (3 Bft) 97 %
21.07.2018 14:00 30,1 C 35 % 1010,4 hPa 0,0 l/m 4,9 km/h (1 Bft) S-SW 204 12,9 C 30,1 C 12,8 km/h (3 Bft) 100 %
21.07.2018 13:50 29,6 C 36 % 1010,4 hPa 0,0 l/m 4,9 km/h (1 Bft) O-SO 113 12,9 C 29,6 C 14,9 km/h (3 Bft) 100 %
21.07.2018 13:40 30,0 C 36 % 1010,5 hPa 0,0 l/m 4,9 km/h (1 Bft) S 182 13,3 C 30,0 C 14,9 km/h (3 Bft) 99 %
21.07.2018 13:30 30,3 C 36 % 1010,6 hPa 0,0 l/m 3,5 km/h (1 Bft) S 177 13,5 C 30,3 C 12,8 km/h (3 Bft) 98 %
21.07.2018 13:20 30,4 C 36 % 1010,6 hPa 0,0 l/m 5,2 km/h (1 Bft) S-SO 149 13,6 C 30,4 C 19,2 km/h (3 Bft) 99 %
21.07.2018 13:10 29,8 C 38 % 1010,7 hPa 0,0 l/m 3,6 km/h (1 Bft) N-NO 30 13,9 C 29,8 C 12,8 km/h (3 Bft) 99 %
21.07.2018 13:00 29,2 C 39 % 1010,7 hPa 0,0 l/m 3,0 km/h (1 Bft) O-NO 76 13,8 C 29,2 C 8,5 km/h (2 Bft) 98 %
21.07.2018 12:50 29,3 C 38 % 1010,7 hPa 0,0 l/m 4,3 km/h (1 Bft) S-SO 165 13,5 C 29,3 C 12,8 km/h (3 Bft) 98 %
21.07.2018 12:40 29,7 C 38 % 1010,7 hPa 0,0 l/m 5,0 km/h (1 Bft) O 84 13,8 C 29,7 C 14,9 km/h (3 Bft) 99 %
21.07.2018 12:30 29,1 C 39 % 1010,7 hPa 0,0 l/m 3,2 km/h (1 Bft) O 90 13,7 C 29,1 C 12,8 km/h (3 Bft) 98 %
21.07.2018 12:21 28,8 C 39 % 1010,7 hPa 0,0 l/m 3,3 km/h (1 Bft) O-SO 113 13,4 C 28,8 C 17,1 km/h (3 Bft) 99 %
21.07.2018 12:10 28,4 C 41 % 1010,7 hPa 0,0 l/m 2,0 km/h (1 Bft) S 169 13,9 C 28,4 C 8,5 km/h (2 Bft) 97 %
21.07.2018 12:00 28,2 C 41 % 1010,7 hPa 0,0 l/m 3,7 km/h (1 Bft) O-NO 78 13,7 C 28,2 C 14,9 km/h (3 Bft) 99 %
21.07.2018 11:50 28,2 C 41 % 1010,7 hPa 0,0 l/m 6,9 km/h (2 Bft) NO 37 13,7 C 28,1 C 17,1 km/h (3 Bft) 98 %
21.07.2018 11:40 28,3 C 42 % 1010,7 hPa 0,0 l/m 5,3 km/h (1 Bft) N 10 14,1 C 28,3 C 14,9 km/h (3 Bft) 99 %
21.07.2018 11:30 27,8 C 42 % 1010,6 hPa 0,0 l/m 4,1 km/h (1 Bft) O 80 13,7 C 27,8 C 10,7 km/h (2 Bft) 100 %
21.07.2018 11:20 27,2 C 45 % 1010,7 hPa 0,0 l/m 3,6 km/h (1 Bft) W 268 14,2 C 27,2 C 10,7 km/h (2 Bft) 98 %
21.07.2018 11:10 26,6 C 45 % 1010,8 hPa 0,0 l/m 3,3 km/h (1 Bft) O 85 13,7 C 26,6 C 10,7 km/h (2 Bft) 99 %
21.07.2018 11:00 25,8 C 46 % 1010,8 hPa 0,0 l/m 4,0 km/h (1 Bft) S-SW 208 13,3 C 25,8 C 12,8 km/h (3 Bft) 99 %
21.07.2018 10:50 25,2 C 47 % 1010,9 hPa 0,0 l/m 4,1 km/h (1 Bft) S 178 13,1 C 25,2 C 10,7 km/h (2 Bft) 100 %
21.07.2018 10:40 24,4 C 51 % 1011,0 hPa 0,0 l/m 3,2 km/h (1 Bft) SO 129 13,6 C 24,4 C 12,8 km/h (3 Bft) 100 %
21.07.2018 10:30 24,1 C 51 % 1011,0 hPa 0,0 l/m 2,7 km/h (1 Bft) S 175 13,3 C 24,1 C 8,5 km/h (2 Bft) 99 %
21.07.2018 10:20 24,2 C 51 % 1011,1 hPa 0,0 l/m 2,2 km/h (1 Bft) S 178 13,4 C 24,2 C 8,5 km/h (2 Bft) 100 %
21.07.2018 10:10 23,6 C 53 % 1011,0 hPa 0,0 l/m 1,5 km/h (1 Bft) S-SO 155 13,4 C 23,6 C 8,5 km/h (2 Bft) 98 %
21.07.2018 10:00 22,7 C 55 % 1011,1 hPa 0,0 l/m 3,1 km/h (1 Bft) O 84 13,2 C 22,7 C 8,5 km/h (2 Bft) 100 %
21.07.2018 09:50 21,8 C 57 % 1011,1 hPa 0,0 l/m 1,9 km/h (1 Bft) O-SO 110 12,9 C 21,8 C 8,5 km/h (2 Bft) 100 %
21.07.2018 09:40 21,1 C 59 % 1011,1 hPa 0,0 l/m 4,4 km/h (1 Bft) SO 126 12,8 C 21,1 C 14,9 km/h (3 Bft) 100 %
21.07.2018 09:30 20,6 C 60 % 1011,0 hPa 0,0 l/m 4,8 km/h (1 Bft) O-SO 105 12,6 C 20,6 C 14,9 km/h (3 Bft) 99 %
21.07.2018 09:20 20,3 C 60 % 1011,0 hPa 0,0 l/m 4,0 km/h (1 Bft) SO 131 12,3 C 20,3 C 14,9 km/h (3 Bft) 99 %
21.07.2018 09:10 20,0 C 60 % 1011,1 hPa 0,0 l/m 2,4 km/h (1 Bft) S 190 12,0 C 20,0 C 8,5 km/h (2 Bft) 99 %
21.07.2018 09:00 19,8 C 61 % 1010,9 hPa 0,0 l/m 2,9 km/h (1 Bft) SO 124 12,1 C 19,8 C 8,5 km/h (2 Bft) 100 %
21.07.2018 08:50 19,8 C 61 % 1010,8 hPa 0,0 l/m 3,8 km/h (1 Bft) S 171 12,1 C 19,8 C 14,9 km/h (3 Bft) 99 %
21.07.2018 08:40 19,7 C 61 % 1010,6 hPa 0,0 l/m 6,7 km/h (2 Bft) N-NO 13 12,0 C 19,6 C 21,3 km/h (4 Bft) 98 %
21.07.2018 08:30 19,6 C 61 % 1010,6 hPa 0,0 l/m 7,6 km/h (2 Bft) O 83 11,9 C 19,1 C 19,2 km/h (3 Bft) 99 %
21.07.2018 08:20 19,5 C 61 % 1010,5 hPa 0,0 l/m 6,6 km/h (2 Bft) O-SO 123 11,8 C 19,4 C 21,3 km/h (4 Bft) 100 %
21.07.2018 08:10 19,3 C 61 % 1010,4 hPa 0,0 l/m 6,6 km/h (2 Bft) O-NO 59 11,6 C 19,2 C 21,3 km/h (4 Bft) 100 %
21.07.2018 08:00 19,1 C 63 % 1010,4 hPa 0,0 l/m 5,0 km/h (1 Bft) SO 134 11,9 C 19,1 C 14,9 km/h (3 Bft) 100 %
21.07.2018 07:50 18,9 C 64 % 1010,4 hPa 0,0 l/m 3,9 km/h (1 Bft) SO 137 11,9 C 18,9 C 8,5 km/h (2 Bft) 99 %
21.07.2018 07:40 18,7 C 66 % 1010,4 hPa 0,0 l/m 2,6 km/h (1 Bft) O-SO 111 12,2 C 18,7 C 8,5 km/h (2 Bft) 99 %
21.07.2018 07:30 18,4 C 66 % 1010,2 hPa 0,0 l/m 3,7 km/h (1 Bft) O 86 11,9 C 18,4 C 14,9 km/h (3 Bft) 100 %
21.07.2018 07:20 18,1 C 68 % 1010,0 hPa 0,0 l/m 5,3 km/h (1 Bft) O 83 12,1 C 18,1 C 12,8 km/h (3 Bft) 99 %
21.07.2018 07:10 17,9 C 69 % 1010,1 hPa 0,0 l/m 5,5 km/h (1 Bft) O 86 12,1 C 17,9 C 14,9 km/h (3 Bft) 99 %
21.07.2018 07:00 17,8 C 70 % 1010,0 hPa 0,0 l/m 5,7 km/h (1 Bft) O 86 12,3 C 17,8 C 19,2 km/h (3 Bft) 99 %
21.07.2018 06:50 17,8 C 71 % 1010,0 hPa 0,0 l/m 5,1 km/h (1 Bft) NO 38 12,5 C 17,8 C 14,9 km/h (3 Bft) 99 %
21.07.2018 06:40 17,9 C 71 % 1010,1 hPa 0,0 l/m 4,5 km/h (1 Bft) NO 40 12,6 C 17,9 C 14,9 km/h (3 Bft) 100 %
21.07.2018 06:30 18,0 C 70 % 1010,2 hPa 0,0 l/m 4,6 km/h (1 Bft) O 92 12,4 C 18,0 C 12,8 km/h (3 Bft) 99 %
21.07.2018 06:20 18,0 C 67 % 1010,1 hPa 0,0 l/m 4,8 km/h (1 Bft) O-NO 58 11,8 C 18,0 C 14,9 km/h (3 Bft) 99 %
21.07.2018 06:10 18,1 C 67 % 1010,3 hPa 0,0 l/m 2,5 km/h (1 Bft) O 95 11,9 C 18,1 C 10,7 km/h (2 Bft) 99 %
21.07.2018 06:00 18,1 C 67 % 1010,3 hPa 0,0 l/m 4,4 km/h (1 Bft) O 100 11,9 C 18,1 C 14,9 km/h (3 Bft) 100 %
21.07.2018 05:50 18,2 C 67 % 1010,4 hPa 0,0 l/m 4,2 km/h (1 Bft) O 98 12,0 C 18,2 C 8,5 km/h (2 Bft) 100 %
21.07.2018 05:40 18,3 C 67 % 1010,4 hPa 0,0 l/m 3,1 km/h (1 Bft) O-NO 70 12,1 C 18,3 C 8,5 km/h (2 Bft) 99 %
21.07.2018 05:30 18,3 C 67 % 1010,5 hPa 0,0 l/m 1,6 km/h (1 Bft) O-SO 111 12,1 C 18,3 C 8,5 km/h (2 Bft) 99 %
21.07.2018 05:20 18,4 C 67 % 1010,5 hPa 0,0 l/m 2,9 km/h (1 Bft) O-SO 103 12,2 C 18,4 C 12,8 km/h (3 Bft) 100 %
21.07.2018 05:10 18,4 C 67 % 1010,5 hPa 0,0 l/m 1,7 km/h (1 Bft) O-NO 69 12,2 C 18,4 C 8,5 km/h (2 Bft) 99 %
21.07.2018 05:00 18,4 C 67 % 1010,6 hPa 0,0 l/m 2,7 km/h (1 Bft) O-SO 120 12,2 C 18,4 C 12,8 km/h (3 Bft) 99 %
21.07.2018 04:50 18,5 C 67 % 1010,6 hPa 0,0 l/m 2,0 km/h (1 Bft) O-NO 71 12,3 C 18,5 C 6,4 km/h (2 Bft) 99 %
21.07.2018 04:40 18,5 C 67 % 1010,5 hPa 0,0 l/m 3,3 km/h (1 Bft) O 84 12,3 C 18,5 C 10,7 km/h (2 Bft) 99 %
21.07.2018 04:30 18,6 C 68 % 1010,6 hPa 0,0 l/m 3,3 km/h (1 Bft) O-SO 105 12,6 C 18,6 C 10,7 km/h (2 Bft) 99 %
21.07.2018 04:20 18,6 C 68 % 1010,5 hPa 0,0 l/m 3,3 km/h (1 Bft) O-SO 109 12,6 C 18,6 C 8,5 km/h (2 Bft) 100 %
21.07.2018 04:10 18,6 C 68 % 1010,6 hPa 0,0 l/m 2,7 km/h (1 Bft) O 86 12,6 C 18,6 C 8,5 km/h (2 Bft) 99 %
21.07.2018 04:00 18,6 C 69 % 1010,5 hPa 0,0 l/m 3,6 km/h (1 Bft) O 93 12,8 C 18,6 C 12,8 km/h (3 Bft) 99 %
_ Min-Zeit 03:10 15:00 19:10 - 21:50 - - 08:10 03:10 21:50 02:30
Minimum _ 17,3 C 33 % 1009,7 hPa - 0,0 km/h (0 Bft) - - 11,6 C 17,3 C 0,0 km/h (0 Bft) 97 %
_ Max-Zeit 14:30 03:00 02:40 04:00 08:30 - - 20:50 14:30 08:10 04:20
Maximum _ 31,6 C 85 % 1011,5 hPa 0,0 l/m 7,6 km/h
O (2 Bft)
- - 17,2 C 31,6 C 21,3 km/h
O (4 Bft)
100 %
Durchschnitt _ 23,5 C 57 % 1010,5 hPa #0,0 l/m 3,4 km/h (1 Bft) S - 13,9 C 23,5 C 11,0 km/h (2 Bft) 99 %